Time,TemperatureF,DewpointF,PressureIn,WindDirection,WindDirectionDegrees,WindSpeedMPH,WindSpeedGustMPH,Humidity,HourlyPrecipIn,Conditions,Clouds,dailyrainin,SoftwareType,DateUTC
2013-08-02 00:04:00,54.9,53.0,29.99,WNW,297,5.0,8.0,94,0.00,,,0.00,weatherlink.com 1.10,2013-08-02 07:04:00,
2013-08-02 00:19:00,54.5,53.0,29.99,NW,306,3.0,6.0,95,0.00,,,0.00,weatherlink.com 1.10,2013-08-02 07:19:00,
2013-08-02 00:33:00,54.6,53.0,29.99,WNW,283,4.0,8.0,95,0.00,,,0.00,weatherlink.com 1.10,2013-08-02 07:33:00,
2013-08-02 00:49:00,54.4,53.0,29.98,WNW,288,5.0,8.0,95,0.00,,,0.00,weatherlink.com 1.10,2013-08-02 07:49:00,
2013-08-02 01:04:00,54.0,52.0,29.97,NW,309,2.0,7.0,94,0.00,,,0.00,weatherlink.com 1.10,2013-08-02 08:04:00,
2013-08-02 01:19:00,52.8,51.0,29.98,NE,37,2.0,3.0,94,0.00,,,0.00,weatherlink.com 1.10,2013-08-02 08:19:00,
2013-08-02 01:34:00,53.3,52.0,29.97,WNW,295,3.0,7.0,96,0.00,,,0.00,weatherlink.com 1.10,2013-08-02 08:34:00,
2013-08-02 01:49:00,53.9,53.0,29.97,West,280,7.0,10.0,95,0.00,,,0.00,weatherlink.com 1.10,2013-08-02 08:49:00,
2013-08-02 02:04:00,53.9,53.0,29.97,West,273,4.0,9.0,95,0.00,,,0.00,weatherlink.com 1.10,2013-08-02 09:04:00,
2013-08-02 02:19:00,53.9,53.0,29.97,WNW,295,5.0,9.0,95,0.00,,,0.00,weatherlink.com 1.10,2013-08-02 09:19:00,
2013-08-02 02:34:00,53.7,52.0,29.96,West,276,8.0,9.0,95,0.00,,,0.00,weatherlink.com 1.10,2013-08-02 09:34:00,
2013-08-02 02:49:00,53.5,52.0,29.96,West,266,12.0,12.0,95,0.00,,,0.00,weatherlink.com 1.10,2013-08-02 09:49:00,
2013-08-02 03:04:00,53.3,52.0,29.96,WNW,295,5.0,14.0,96,0.00,,,0.00,weatherlink.com 1.10,2013-08-02 10:04:00,
2013-08-02 03:19:00,53.3,52.0,29.96,West,278,12.0,12.0,96,0.00,,,0.00,weatherlink.com 1.10,2013-08-02 10:19:00,
2013-08-02 03:34:00,53.1,52.0,29.96,NW,305,4.0,11.0,96,0.00,,,0.00,weatherlink.com 1.10,2013-08-02 10:34:00,
2013-08-02 03:49:00,52.1,51.0,29.96,West,272,14.0,17.0,97,0.00,,,0.00,weatherlink.com 1.10,2013-08-02 10:49:00,
2013-08-02 04:04:00,51.8,51.0,29.96,West,270,9.0,15.0,98,0.00,,,0.00,weatherlink.com 1.10,2013-08-02 11:04:00,
2013-08-02 04:19:00,51.6,51.0,29.96,WNW,295,9.0,13.0,98,0.00,,,0.00,weatherlink.com 1.10,2013-08-02 11:19:00,
2013-08-02 04:34:00,51.2,51.0,29.96,WNW,286,8.0,15.0,98,0.00,,,0.00,weatherlink.com 1.10,2013-08-02 11:34:00,
2013-08-02 04:49:00,51.0,51.0,29.96,WNW,301,12.0,17.0,98,0.00,,,0.00,weatherlink.com 1.10,2013-08-02 11:49:00,
2013-08-02 05:04:00,51.0,51.0,29.96,WNW,283,11.0,12.0,99,0.00,,,0.00,weatherlink.com 1.10,2013-08-02 12:04:00,
2013-08-02 05:19:00,51.2,51.0,29.96,West,278,4.0,12.0,99,0.00,,,0.00,weatherlink.com 1.10,2013-08-02 12:19:00,
2013-08-02 05:34:00,51.5,51.0,29.95,West,277,6.0,14.0,99,0.00,,,0.00,weatherlink.com 1.10,2013-08-02 12:34:00,
2013-08-02 05:49:00,51.9,52.0,29.96,WNW,288,3.0,13.0,99,0.00,,,0.00,weatherlink.com 1.10,2013-08-02 12:49:00,
2013-08-02 06:04:00,52.1,52.0,29.97,WNW,297,5.0,9.0,99,0.00,,,0.00,weatherlink.com 1.10,2013-08-02 13:04:00,
2013-08-02 06:19:00,52.1,52.0,29.97,WNW,290,4.0,9.0,99,0.00,,,0.00,weatherlink.com 1.10,2013-08-02 13:19:00,
2013-08-02 06:34:00,52.2,52.0,29.97,WNW,285,3.0,8.0,99,0.00,,,0.00,weatherlink.com 1.10,2013-08-02 13:34:00,
2013-08-02 06:49:00,51.6,51.0,29.97,West,264,7.0,11.0,98,0.00,,,0.00,weatherlink.com 1.10,2013-08-02 13:49:00,
2013-08-02 07:04:00,51.3,51.0,29.98,West,275,4.0,8.0,99,0.00,,,0.00,weatherlink.com 1.10,2013-08-02 14:04:00,
2013-08-02 07:19:00,51.7,52.0,29.99,West,281,1.0,5.0,99,0.00,,,0.00,weatherlink.com 1.10,2013-08-02 14:19:00,
2013-08-02 07:35:00,52.1,52.0,29.99,West,271,1.0,5.0,98,0.00,,,0.00,weatherlink.com 1.10,2013-08-02 14:35:00,
2013-08-02 07:50:00,52.0,51.0,29.99,WNW,285,0.0,4.0,97,0.00,,,0.00,weatherlink.com 1.10,2013-08-02 14:50:00,
2013-08-02 08:05:00,51.6,51.0,29.99,West,276,2.0,6.0,97,0.00,,,0.00,weatherlink.com 1.10,2013-08-02 15:05:00,
2013-08-02 08:20:00,51.6,51.0,30.00,West,260,4.0,8.0,97,0.00,,,0.00,weatherlink.com 1.10,2013-08-02 15:20:00,
2013-08-02 08:35:00,52.1,52.0,30.00,NW,316,3.0,5.0,98,0.00,,,0.00,weatherlink.com 1.10,2013-08-02 15:35:00,
2013-08-02 08:50:00,52.9,52.0,30.00,WSW,255,7.0,9.0,98,0.00,,,0.00,weatherlink.com 1.10,2013-08-02 15:50:00,
2013-08-02 09:05:00,53.8,53.0,30.00,West,263,4.0,7.0,96,0.00,,,0.00,weatherlink.com 1.10,2013-08-02 16:05:00,
2013-08-02 09:20:00,53.9,53.0,30.00,West,266,5.0,9.0,95,0.00,,,0.00,weatherlink.com 1.10,2013-08-02 16:20:00,
2013-08-02 09:35:00,54.3,53.0,30.00,West,266,4.0,8.0,95,0.00,,,0.00,weatherlink.com 1.10,2013-08-02 16:35:00,
2013-08-02 09:50:00,55.5,54.0,29.99,WNW,288,1.0,7.0,94,0.00,,,0.00,weatherlink.com 1.10,2013-08-02 16:50:00,
2013-08-02 10:05:00,57.2,55.0,29.99,WNW,283,0.0,5.0,91,0.00,,,0.00,weatherlink.com 1.10,2013-08-02 17:05:00,
2013-08-02 10:20:00,59.7,56.0,29.99,West,260,3.0,3.0,87,0.00,,,0.00,weatherlink.com 1.10,2013-08-02 17:20:00,
2013-08-02 10:35:00,61.0,57.0,29.98,WSW,249,3.0,4.0,85,0.00,,,0.00,weatherlink.com 1.10,2013-08-02 17:35:00,
2013-08-02 10:50:00,61.9,57.0,29.98,West,272,4.0,5.0,84,0.00,,,0.00,weatherlink.com 1.10,2013-08-02 17:50:00,
2013-08-02 11:05:00,62.7,57.0,29.98,West,277,6.0,7.0,81,0.00,,,0.00,weatherlink.com 1.10,2013-08-02 18:05:00,
2013-08-02 11:20:00,63.8,58.0,29.98,WNW,284,10.0,10.0,80,0.00,,,0.00,weatherlink.com 1.10,2013-08-02 18:20:00,
2013-08-02 11:35:00,63.9,57.0,29.98,West,278,11.0,12.0,79,0.00,,,0.00,weatherlink.com 1.10,2013-08-02 18:35:00,
2013-08-02 11:50:00,62.6,56.0,29.98,WNW,302,14.0,15.0,79,0.00,,,0.00,weatherlink.com 1.10,2013-08-02 18:50:00,
2013-08-02 12:05:00,60.9,55.0,29.98,West,270,10.0,16.0,82,0.00,,,0.00,weatherlink.com 1.10,2013-08-02 19:05:00,
2013-08-02 12:20:00,61.1,56.0,29.98,NW,311,11.0,15.0,82,0.00,,,0.00,weatherlink.com 1.10,2013-08-02 19:20:00,
2013-08-02 12:35:00,61.2,56.0,29.98,WSW,257,8.0,15.0,82,0.00,,,0.00,weatherlink.com 1.10,2013-08-02 19:35:00,
2013-08-02 12:50:00,60.4,56.0,29.98,WNW,293,10.0,18.0,85,0.00,,,0.00,weatherlink.com 1.10,2013-08-02 19:50:00,
2013-08-02 13:05:00,61.0,56.0,29.98,WNW,295,12.0,15.0,83,0.00,,,0.00,weatherlink.com 1.10,2013-08-02 20:05:00,
2013-08-02 13:20:00,61.2,56.0,29.98,WNW,298,14.0,17.0,83,0.00,,,0.00,weatherlink.com 1.10,2013-08-02 20:20:00,
2013-08-02 13:35:00,61.2,56.0,29.98,WNW,290,7.0,18.0,83,0.00,,,0.00,weatherlink.com 1.10,2013-08-02 20:35:00,
2013-08-02 13:50:00,61.0,56.0,29.98,West,262,5.0,16.0,83,0.00,,,0.00,weatherlink.com 1.10,2013-08-02 20:50:00,
2013-08-02 14:05:00,60.4,56.0,29.98,West,281,13.0,17.0,84,0.00,,,0.00,weatherlink.com 1.10,2013-08-02 21:05:00,
2013-08-02 14:20:00,58.9,55.0,29.98,West,273,10.0,20.0,88,0.00,,,0.00,weatherlink.com 1.10,2013-08-02 21:20:00,
2013-08-02 14:35:00,59.6,56.0,29.97,WNW,287,10.0,16.0,86,0.00,,,0.00,weatherlink.com 1.10,2013-08-02 21:35:00,
2013-08-02 14:50:00,58.9,54.0,29.97,West,276,11.0,18.0,85,0.00,,,0.00,weatherlink.com 1.10,2013-08-02 21:50:00,
2013-08-02 15:05:00,58.2,55.0,29.97,WNW,295,8.0,18.0,90,0.00,,,0.00,weatherlink.com 1.10,2013-08-02 22:05:00,
2013-08-02 15:20:00,58.7,56.0,29.96,NW,316,7.0,18.0,91,0.00,,,0.00,weatherlink.com 1.10,2013-08-02 22:20:00,
2013-08-02 15:35:00,59.7,56.0,29.96,West,273,6.0,16.0,86,0.00,,,0.00,weatherlink.com 1.10,2013-08-02 22:35:00,
2013-08-02 15:50:00,59.6,56.0,29.96,West,276,9.0,16.0,87,0.00,,,0.00,weatherlink.com 1.10,2013-08-02 22:50:00,
2013-08-02 16:06:00,58.9,55.0,29.95,WNW,293,9.0,20.0,86,0.00,,,0.00,weatherlink.com 1.10,2013-08-02 23:06:00,
2013-08-02 16:21:00,58.9,55.0,29.95,West,280,11.0,17.0,88,0.00,,,0.00,weatherlink.com 1.10,2013-08-02 23:21:00,
2013-08-02 16:36:00,58.9,55.0,29.95,West,270,10.0,16.0,87,0.00,,,0.00,weatherlink.com 1.10,2013-08-02 23:36:00,
2013-08-02 16:51:00,59.0,55.0,29.94,WNW,285,12.0,17.0,87,0.00,,,0.00,weatherlink.com 1.10,2013-08-02 23:51:00,
2013-08-02 17:05:00,58.9,55.0,29.94,West,281,15.0,19.0,87,0.00,,,0.00,weatherlink.com 1.10,2013-08-03 00:05:00,
2013-08-02 17:21:00,58.4,55.0,29.94,West,281,11.0,20.0,88,0.00,,,0.00,weatherlink.com 1.10,2013-08-03 00:21:00,
2013-08-02 17:36:00,57.8,55.0,29.94,West,274,7.0,15.0,89,0.00,,,0.00,weatherlink.com 1.10,2013-08-03 00:36:00,
2013-08-02 17:51:00,57.7,55.0,29.94,NW,314,7.0,17.0,89,0.00,,,0.00,weatherlink.com 1.10,2013-08-03 00:51:00,
2013-08-02 18:06:00,57.7,55.0,29.93,West,276,6.0,17.0,89,0.00,,,0.00,weatherlink.com 1.10,2013-08-03 01:06:00,
2013-08-02 18:21:00,57.6,55.0,29.93,WNW,295,11.0,14.0,90,0.00,,,0.00,weatherlink.com 1.10,2013-08-03 01:21:00,
2013-08-02 18:36:00,57.5,55.0,29.93,West,274,8.0,14.0,90,0.00,,,0.00,weatherlink.com 1.10,2013-08-03 01:36:00,
2013-08-02 18:51:00,57.7,54.0,29.93,West,264,6.0,13.0,88,0.00,,,0.00,weatherlink.com 1.10,2013-08-03 01:51:00,
2013-08-02 19:06:00,57.5,54.0,29.93,West,270,8.0,15.0,88,0.00,,,0.00,weatherlink.com 1.10,2013-08-03 02:06:00,
2013-08-02 19:21:00,57.3,55.0,29.93,West,277,8.0,13.0,90,0.00,,,0.00,weatherlink.com 1.10,2013-08-03 02:21:00,
2013-08-02 19:36:00,56.6,54.0,29.92,WNW,303,6.0,12.0,91,0.00,,,0.00,weatherlink.com 1.10,2013-08-03 02:36:00,
2013-08-02 19:51:00,55.8,54.0,29.93,WNW,287,9.0,12.0,92,0.00,,,0.00,weatherlink.com 1.10,2013-08-03 02:51:00,
2013-08-02 20:07:00,55.5,54.0,29.93,WNW,293,8.0,13.0,93,0.00,,,0.00,weatherlink.com 1.10,2013-08-03 03:07:00,
2013-08-02 20:21:00,55.2,53.0,29.93,WNW,284,6.0,13.0,93,0.00,,,0.00,weatherlink.com 1.10,2013-08-03 03:21:00,
2013-08-02 20:36:00,55.1,54.0,29.93,WNW,285,7.0,14.0,94,0.00,,,0.00,weatherlink.com 1.10,2013-08-03 03:36:00,
2013-08-02 20:51:00,54.9,53.0,29.93,WNW,295,4.0,11.0,93,0.00,,,0.00,weatherlink.com 1.10,2013-08-03 03:51:00,
2013-08-02 21:06:00,54.7,53.0,29.93,WNW,283,7.0,10.0,94,0.00,,,0.00,weatherlink.com 1.10,2013-08-03 04:06:00,
2013-08-02 21:21:00,54.8,53.0,29.94,West,281,6.0,10.0,94,0.00,,,0.00,weatherlink.com 1.10,2013-08-03 04:21:00,
2013-08-02 21:36:00,54.8,53.0,29.94,West,278,6.0,11.0,94,0.00,,,0.00,weatherlink.com 1.10,2013-08-03 04:36:00,
2013-08-02 21:51:00,55.0,53.0,29.94,West,281,6.0,10.0,94,0.00,,,0.00,weatherlink.com 1.10,2013-08-03 04:51:00,
2013-08-02 22:06:00,54.7,53.0,29.94,West,280,10.0,11.0,94,0.00,,,0.00,weatherlink.com 1.10,2013-08-03 05:06:00,
2013-08-02 22:21:00,54.7,53.0,29.94,WNW,293,4.0,11.0,94,0.00,,,0.00,weatherlink.com 1.10,2013-08-03 05:21:00,
2013-08-02 22:36:00,54.5,53.0,29.94,WSW,243,5.0,11.0,94,0.00,,,0.00,weatherlink.com 1.10,2013-08-03 05:36:00,
2013-08-02 22:51:00,54.5,53.0,29.94,West,271,6.0,9.0,95,0.00,,,0.00,weatherlink.com 1.10,2013-08-03 05:51:00,
2013-08-02 23:06:00,54.2,53.0,29.94,West,276,4.0,9.0,95,0.00,,,0.00,weatherlink.com 1.10,2013-08-03 06:06:00,
2013-08-02 23:36:00,54.3,53.0,29.94,WSW,254,6.0,11.0,95,0.00,,,0.00,weatherlink.com 1.10,2013-08-03 06:36:00,
2013-08-02 23:51:00,53.9,52.0,29.94,West,270,5.0,10.0,94,0.00,,,0.00,weatherlink.com 1.10,2013-08-03 06:51:00,